Time,TemperatureF,DewpointF,PressureIn,WindDirection,WindDirectionDegrees,WindSpeedMPH,WindSpeedGustMPH,Humidity,HourlyPrecipIn,Conditions,Clouds,dailyrainin,SolarRadiationWatts/m^2,SoftwareType,DateUTC
2013-06-11 00:00:00,82.6,67.3,29.90,SSW,202,4.0,7.0,60,0.00,,OVC019,0.00,0.00,VWS V15.00,2013-06-11 05:00:00,
2013-06-11 00:02:00,81.2,68.8,29.91,South,190,4.0,4.0,66,0.00,,CLR,0.00,0.00,VWS V14.01,2013-06-11 05:02:00,
2013-06-11 00:07:00,81.2,69.2,29.91,South,190,2.0,6.0,67,0.00,,CLR,0.00,0.00,VWS V14.01,2013-06-11 05:07:00,
2013-06-11 00:10:00,82.4,67.1,29.90,SSW,194,5.0,10.0,60,0.00,,OVC019,0.00,0.00,VWS V15.00,2013-06-11 05:10:00,
2013-06-11 00:12:00,81.2,69.2,29.91,SSW,197,3.0,4.0,67,0.00,,CLR,0.00,0.00,VWS V14.01,2013-06-11 05:12:00,
2013-06-11 00:18:00,81.2,69.6,29.92,SSW,197,5.0,5.0,68,0.00,,CLR,0.00,0.00,VWS V14.01,2013-06-11 05:18:00,
2013-06-11 00:20:00,82.4,67.6,29.90,South,187,4.0,10.0,61,0.00,,OVC019,0.00,0.00,VWS V15.00,2013-06-11 05:20:00,
2013-06-11 00:22:00,81.1,69.6,29.92,SSW,197,3.0,6.0,68,0.00,,CLR,0.00,0.00,VWS V14.01,2013-06-11 05:22:00,
2013-06-11 00:28:00,81.1,69.6,29.92,SSW,192,6.0,7.0,68,0.00,,CLR,0.00,0.00,VWS V14.01,2013-06-11 05:28:00,
2013-06-11 00:30:00,82.0,68.2,29.91,SSW,200,3.0,9.0,63,0.00,,CLR,0.00,0.00,VWS V15.00,2013-06-11 05:30:00,
2013-06-11 00:32:00,80.9,69.4,29.92,South,190,5.0,7.0,68,0.00,,CLR,0.00,0.00,VWS V14.01,2013-06-11 05:32:00,
2013-06-11 00:38:00,80.9,68.9,29.92,SSW,198,3.0,7.0,67,0.00,,CLR,0.00,0.00,VWS V14.01,2013-06-11 05:38:00,
2013-06-11 00:40:00,81.8,68.4,29.91,SSW,200,4.0,6.0,64,0.00,,CLR,0.00,0.00,VWS V15.00,2013-06-11 05:40:00,
2013-06-11 00:43:00,80.7,69.2,29.92,SSW,198,3.0,5.0,68,0.00,,CLR,0.00,0.00,VWS V14.01,2013-06-11 05:43:00,
2013-06-11 00:48:00,80.7,69.6,29.92,SSW,196,4.0,5.0,69,0.00,,CLR,0.00,0.00,VWS V14.01,2013-06-11 05:48:00,
2013-06-11 00:50:00,81.6,68.7,29.91,South,186,5.0,7.0,65,0.00,,OVC019,0.00,0.00,VWS V15.00,2013-06-11 05:50:00,
2013-06-11 00:53:00,80.5,69.4,29.92,SSW,196,5.0,5.0,69,0.00,,CLR,0.00,0.00,VWS V14.01,2013-06-11 05:53:00,
2013-06-11 00:58:00,80.3,69.6,29.92,SSW,199,4.0,6.0,70,0.00,,CLR,0.00,0.00,VWS V14.01,2013-06-11 05:58:00,
2013-06-11 01:00:00,81.2,68.8,29.91,South,190,4.0,6.0,66,0.00,,OVC019,0.00,0.00,VWS V15.00,2013-06-11 06:00:00,
2013-06-11 01:03:00,80.1,69.0,29.92,SSW,195,3.0,6.0,69,0.00,,CLR,0.00,0.00,VWS V14.01,2013-06-11 06:03:00,
2013-06-11 01:08:00,79.9,69.2,29.92,SSW,202,6.0,9.0,70,0.00,,CLR,0.00,0.00,VWS V14.01,2013-06-11 06:08:00,
2013-06-11 01:10:00,81.2,69.2,29.91,SSW,197,3.0,9.0,67,0.00,,CLR,0.00,0.00,VWS V15.00,2013-06-11 06:10:00,
2013-06-11 01:13:00,79.9,69.7,29.92,SSW,198,6.0,7.0,71,0.00,,CLR,0.00,0.00,VWS V14.01,2013-06-11 06:13:00,
2013-06-11 01:18:00,79.9,70.1,29.91,SSW,192,6.0,10.0,72,0.00,,CLR,0.00,0.00,VWS V14.01,2013-06-11 06:18:00,
2013-06-11 01:20:00,81.1,69.6,29.92,SSW,196,5.0,7.0,68,0.00,,CLR,0.00,0.00,VWS V15.00,2013-06-11 06:20:00,
2013-06-11 01:23:00,79.8,70.0,29.91,SSW,197,3.0,8.0,72,0.00,,CLR,0.00,0.00,VWS V14.01,2013-06-11 06:23:00,
2013-06-11 01:28:00,79.8,70.4,29.91,SSW,209,4.0,11.0,73,0.00,,CLR,0.00,0.00,VWS V14.01,2013-06-11 06:28:00,
2013-06-11 01:33:00,79.6,70.6,29.91,South,181,5.0,6.0,74,0.00,,CLR,0.00,0.00,VWS V14.01,2013-06-11 06:33:00,
2013-06-11 01:38:00,79.4,70.8,29.91,South,183,4.0,7.0,75,0.00,,CLR,0.00,0.00,VWS V14.01,2013-06-11 06:38:00,
2013-06-11 01:40:00,80.9,69.4,29.92,SSW,198,3.0,7.0,68,0.00,,OVC019,0.00,0.00,VWS V15.00,2013-06-11 06:40:00,
2013-06-11 01:43:00,79.2,70.6,29.91,South,186,4.0,9.0,75,0.00,,CLR,0.00,0.00,VWS V14.01,2013-06-11 06:43:00,
2013-06-11 01:48:00,79.2,70.6,29.91,South,184,5.0,9.0,75,0.00,,CLR,0.00,0.00,VWS V14.01,2013-06-11 06:48:00,
2013-06-11 01:50:00,80.5,69.4,29.92,SSW,197,4.0,5.0,69,0.00,,OVC019,0.00,0.00,VWS V15.00,2013-06-11 06:50:00,
2013-06-11 01:53:00,79.4,70.8,29.91,South,188,13.0,13.0,75,0.00,,CLR,0.00,0.00,VWS V14.01,2013-06-11 06:53:00,
2013-06-11 01:58:00,79.2,71.8,29.91,South,190,8.0,13.0,78,0.00,,CLR,0.00,0.00,VWS V14.01,2013-06-11 06:58:00,
2013-06-11 02:00:00,80.1,69.0,29.92,SSW,195,4.0,6.0,69,0.00,,OVC019,0.00,0.00,VWS V15.00,2013-06-11 07:00:00,
2013-06-11 02:03:00,79.2,70.6,29.91,South,186,7.0,10.0,75,0.00,,CLR,0.00,0.00,VWS V14.01,2013-06-11 07:03:00,
2013-06-11 02:08:00,79.0,70.8,29.91,SSW,201,4.0,10.0,76,0.00,,CLR,0.00,0.00,VWS V14.01,2013-06-11 07:08:00,
2013-06-11 02:10:00,79.9,69.2,29.92,SSW,196,4.0,10.0,70,0.00,,OVC019,0.00,0.00,VWS V15.00,2013-06-11 07:10:00,
2013-06-11 02:13:00,78.8,71.0,29.91,SSW,196,5.0,7.0,77,0.00,,CLR,0.00,0.00,VWS V14.01,2013-06-11 07:13:00,
2013-06-11 02:18:00,78.6,71.2,29.91,SSW,194,5.0,11.0,78,0.00,,CLR,0.00,0.00,VWS V14.01,2013-06-11 07:18:00,
2013-06-11 02:20:00,79.8,70.0,29.91,South,186,4.0,13.0,72,0.00,,CLR,0.00,0.00,VWS V15.00,2013-06-11 07:20:00,
2013-06-11 02:23:00,78.3,70.9,29.91,SSE,165,4.0,7.0,78,0.00,,CLR,0.00,0.00,VWS V14.01,2013-06-11 07:23:00,
2013-06-11 02:28:00,78.3,71.3,29.91,South,176,6.0,10.0,79,0.00,,CLR,0.00,0.00,VWS V14.01,2013-06-11 07:28:00,
2013-06-11 02:30:00,79.6,70.6,29.91,SSW,196,4.0,11.0,74,0.00,,OVC019,0.00,0.00,VWS V15.00,2013-06-11 07:30:00,
2013-06-11 02:33:00,78.1,71.1,29.91,SSW,199,7.0,12.0,79,0.00,,CLR,0.00,0.00,VWS V14.01,2013-06-11 07:33:00,
2013-06-11 02:38:00,78.1,71.4,29.91,South,182,5.0,12.0,80,0.00,,CLR,0.00,0.00,VWS V14.01,2013-06-11 07:38:00,
2013-06-11 02:40:00,79.2,70.6,29.91,SSW,198,5.0,7.0,75,0.00,,CLR,0.00,0.00,VWS V15.00,2013-06-11 07:40:00,
2013-06-11 02:43:00,78.1,71.4,29.91,South,176,7.0,13.0,80,0.00,,CLR,0.00,0.00,VWS V14.01,2013-06-11 07:43:00,
2013-06-11 02:48:00,77.9,70.9,29.91,SSW,195,10.0,13.0,79,0.00,,CLR,0.00,0.00,VWS V14.01,2013-06-11 07:48:00,
2013-06-11 02:50:00,79.2,70.6,29.91,South,175,4.0,11.0,75,0.00,,CLR,0.00,0.00,VWS V15.00,2013-06-11 07:50:00,
2013-06-11 02:53:00,77.9,71.2,29.91,South,184,10.0,12.0,80,0.00,,CLR,0.00,0.00,VWS V14.01,2013-06-11 07:53:00,
2013-06-11 02:58:00,77.9,71.2,29.91,SSW,205,6.0,12.0,80,0.00,,CLR,0.00,0.00,VWS V14.01,2013-06-11 07:58:00,
2013-06-11 03:00:00,79.2,70.6,29.91,SSW,200,9.0,13.0,75,0.00,,CLR,0.00,0.00,VWS V15.00,2013-06-11 08:00:00,
2013-06-11 03:03:00,77.7,70.7,29.91,SSW,194,11.0,13.0,79,0.00,,CLR,0.00,0.00,VWS V14.01,2013-06-11 08:03:00,
2013-06-11 03:08:00,77.7,70.7,29.91,SSW,210,6.0,13.0,79,0.00,,CLR,0.00,0.00,VWS V14.01,2013-06-11 08:08:00,
2013-06-11 03:10:00,78.8,71.0,29.91,South,170,6.0,10.0,77,0.00,,CLR,0.00,0.00,VWS V15.00,2013-06-11 08:10:00,
2013-06-11 03:13:00,77.7,71.0,29.91,South,191,8.0,10.0,80,0.00,,CLR,0.00,0.00,VWS V14.01,2013-06-11 08:13:00,
2013-06-11 03:18:00,77.6,70.9,29.91,SSW,192,5.0,10.0,80,0.00,,CLR,0.00,0.00,VWS V14.01,2013-06-11 08:18:00,
2013-06-11 03:20:00,78.3,70.9,29.91,South,184,5.0,11.0,78,0.00,,CLR,0.00,0.00,VWS V15.00,2013-06-11 08:20:00,
2013-06-11 03:23:00,77.6,70.9,29.91,SSW,199,5.0,12.0,80,0.00,,CLR,0.00,0.00,VWS V14.01,2013-06-11 08:23:00,
2013-06-11 03:28:00,77.6,70.9,29.91,SSW,211,6.0,12.0,80,0.00,,CLR,0.00,0.00,VWS V14.01,2013-06-11 08:28:00,
2013-06-11 03:30:00,78.3,71.6,29.91,SSW,202,6.0,11.0,80,0.00,,CLR,0.00,0.00,VWS V15.00,2013-06-11 08:30:00,
2013-06-11 03:33:00,77.6,70.9,29.90,SSW,198,6.0,8.0,80,0.00,,CLR,0.00,0.00,VWS V14.01,2013-06-11 08:33:00,
2013-06-11 03:38:00,77.4,70.8,29.90,SSW,192,3.0,11.0,80,0.00,,CLR,0.00,0.00,VWS V14.01,2013-06-11 08:38:00,
2013-06-11 03:40:00,78.1,71.4,29.91,SSW,207,6.0,12.0,80,0.00,,CLR,0.00,0.00,VWS V15.00,2013-06-11 08:40:00,
2013-06-11 03:43:00,77.4,71.1,29.90,South,186,5.0,7.0,81,0.00,,CLR,0.00,0.00,VWS V14.01,2013-06-11 08:43:00,
2013-06-11 03:48:00,77.4,71.1,29.90,SSW,209,4.0,10.0,81,0.00,,CLR,0.00,0.00,VWS V14.01,2013-06-11 08:48:00,
2013-06-11 03:50:00,77.9,71.2,29.91,SSW,213,6.0,13.0,80,0.00,,CLR,0.00,0.00,VWS V15.00,2013-06-11 08:50:00,
2013-06-11 03:53:00,77.4,71.5,29.90,SSW,202,10.0,10.0,82,0.00,,CLR,0.00,0.00,VWS V14.01,2013-06-11 08:53:00,
2013-06-11 03:58:00,77.4,71.5,29.90,South,186,6.0,10.0,82,0.00,,CLR,0.00,0.00,VWS V14.01,2013-06-11 08:58:00,
2013-06-11 04:00:00,77.7,70.7,29.91,SSW,207,11.0,14.0,79,0.00,,OVC019,0.00,0.00,VWS V15.00,2013-06-11 09:00:00,
2013-06-11 04:03:00,77.0,71.1,29.90,SSW,194,5.0,10.0,82,0.00,,CLR,0.00,0.00,VWS V14.01,2013-06-11 09:03:00,
2013-06-11 04:08:00,77.0,71.1,29.90,SSW,196,6.0,12.0,82,0.00,,CLR,0.00,0.00,VWS V14.01,2013-06-11 09:08:00,
2013-06-11 04:10:00,77.7,71.0,29.91,South,186,6.0,13.0,80,0.00,,CLR,0.00,0.00,VWS V15.00,2013-06-11 09:10:00,
2013-06-11 04:13:00,77.0,71.1,29.90,SSW,202,5.0,9.0,82,0.00,,CLR,0.00,0.00,VWS V14.01,2013-06-11 09:13:00,
2013-06-11 04:18:00,76.8,70.9,29.90,SSW,207,7.0,12.0,82,0.00,,CLR,0.00,0.00,VWS V14.01,2013-06-11 09:18:00,
2013-06-11 04:20:00,77.6,70.9,29.91,SSW,208,9.0,11.0,80,0.00,,CLR,0.00,0.00,VWS V15.00,2013-06-11 09:20:00,
2013-06-11 04:23:00,76.8,71.2,29.90,SSW,202,5.0,10.0,83,0.00,,CLR,0.00,0.00,VWS V14.01,2013-06-11 09:23:00,
2013-06-11 04:28:00,76.8,71.2,29.90,SSE,168,9.0,12.0,83,0.00,,CLR,0.00,0.00,VWS V14.01,2013-06-11 09:28:00,
2013-06-11 04:30:00,77.6,70.9,29.90,SSW,201,8.0,12.0,80,0.00,,CLR,0.00,0.00,VWS V15.00,2013-06-11 09:30:00,
2013-06-11 04:33:00,76.8,71.2,29.91,SSW,194,7.0,9.0,83,0.00,,CLR,0.00,0.00,VWS V14.01,2013-06-11 09:33:00,
2013-06-11 04:38:00,76.5,71.0,29.91,SSW,198,10.0,11.0,83,0.00,,CLR,0.00,0.00,VWS V14.01,2013-06-11 09:38:00,
2013-06-11 04:40:00,77.4,71.1,29.90,South,190,6.0,11.0,81,0.00,,CLR,0.00,0.00,VWS V15.00,2013-06-11 09:40:00,
2013-06-11 04:43:00,76.5,71.3,29.91,South,184,4.0,9.0,84,0.00,,FEW300,0.00,0.00,VWS V14.01,2013-06-11 09:43:00,
2013-06-11 04:48:00,76.3,71.1,29.91,SSW,195,4.0,12.0,84,0.00,,FEW300,0.00,0.00,VWS V14.01,2013-06-11 09:48:00,
2013-06-11 04:50:00,77.4,71.5,29.90,SSW,200,4.0,10.0,82,0.00,,CLR,0.00,0.00,VWS V15.00,2013-06-11 09:50:00,
2013-06-11 04:53:00,76.3,71.5,29.91,SSW,196,4.0,8.0,85,0.00,,FEW300,0.00,0.00,VWS V14.01,2013-06-11 09:53:00,
2013-06-11 04:58:00,76.1,70.9,29.91,SSW,205,9.0,13.0,84,0.00,,FEW300,0.00,0.00,VWS V14.01,2013-06-11 09:58:00,
2013-06-11 05:00:00,77.2,71.3,29.90,SW,219,7.0,10.0,82,0.00,,CLR,0.00,0.00,VWS V15.00,2013-06-11 10:00:00,
2013-06-11 05:03:00,76.1,70.9,29.92,SSW,204,10.0,12.0,84,0.00,,FEW300,0.00,0.00,VWS V14.01,2013-06-11 10:03:00,
2013-06-11 05:08:00,76.0,70.8,29.92,South,186,10.0,12.0,84,0.00,,FEW300,0.00,0.00,VWS V14.01,2013-06-11 10:08:00,
2013-06-11 05:10:00,77.0,71.1,29.90,SSW,205,9.0,12.0,82,0.00,,CLR,0.00,0.00,VWS V15.00,2013-06-11 10:10:00,
2013-06-11 05:13:00,75.8,70.6,29.92,South,186,11.0,11.0,84,0.00,,FEW300,0.00,0.00,VWS V14.01,2013-06-11 10:13:00,
2013-06-11 05:18:00,75.8,70.6,29.92,SSW,200,5.0,11.0,84,0.00,,FEW300,0.00,0.00,VWS V14.01,2013-06-11 10:18:00,
2013-06-11 05:20:00,76.8,71.2,29.90,SSE,163,10.0,12.0,83,0.00,,CLR,0.00,0.00,VWS V15.00,2013-06-11 10:20:00,
2013-06-11 05:23:00,75.8,71.0,29.92,SSW,211,6.0,10.0,85,0.00,,FEW300,0.00,0.00,VWS V14.01,2013-06-11 10:23:00,
2013-06-11 05:28:00,75.6,70.8,29.92,SSW,205,4.0,11.0,85,0.00,,FEW300,0.00,0.00,VWS V14.01,2013-06-11 10:28:00,
2013-06-11 05:30:00,76.8,71.2,29.91,SSW,196,5.0,12.0,83,0.00,,CLR,0.00,0.00,VWS V15.00,2013-06-11 10:30:00,
2013-06-11 05:33:00,75.6,70.8,29.92,SSW,205,6.0,10.0,85,0.00,,FEW300,0.00,0.00,VWS V14.01,2013-06-11 10:33:00,
2013-06-11 05:38:00,75.6,71.1,29.92,South,191,4.0,10.0,86,0.00,,FEW300,0.00,0.00,VWS V14.01,2013-06-11 10:38:00,
2013-06-11 05:40:00,76.5,71.3,29.91,South,180,8.0,12.0,84,0.00,,CLR,0.00,0.00,VWS V15.00,2013-06-11 10:40:00,
2013-06-11 05:43:00,75.6,71.1,29.92,SSW,200,4.0,7.0,86,0.00,,FEW300,0.00,0.00,VWS V14.01,2013-06-11 10:43:00,
2013-06-11 05:48:00,75.6,71.1,29.93,SSW,194,5.0,7.0,86,0.00,,FEW300,0.00,0.00,VWS V14.01,2013-06-11 10:48:00,
2013-06-11 05:50:00,76.3,71.1,29.91,SSW,207,4.0,12.0,84,0.00,,CLR,0.00,0.00,VWS V15.00,2013-06-11 10:50:00,
2013-06-11 05:53:00,75.4,70.9,29.93,South,178,4.0,7.0,86,0.00,,FEW300,0.00,0.00,VWS V14.01,2013-06-11 10:53:00,
2013-06-11 05:58:00,75.4,71.3,29.93,South,175,11.0,11.0,87,0.00,,FEW300,0.00,0.00,VWS V14.01,2013-06-11 10:58:00,
2013-06-11 06:00:00,76.1,70.9,29.92,SSW,211,6.0,13.0,84,0.00,,CLR,0.00,0.00,VWS V15.00,2013-06-11 11:00:00,
2013-06-11 06:03:00,75.4,71.3,29.93,South,178,9.0,11.0,87,0.00,,FEW300,0.00,0.00,VWS V14.01,2013-06-11 11:03:00,
2013-06-11 06:08:00,75.1,71.0,29.93,South,184,5.0,12.0,87,0.00,,FEW300,0.00,0.00,VWS V14.01,2013-06-11 11:08:00,
2013-06-11 06:10:00,76.0,70.8,29.92,SSW,195,6.0,12.0,84,0.00,,CLR,0.00,0.00,VWS V15.00,2013-06-11 11:10:00,
2013-06-11 06:13:00,75.1,71.0,29.93,South,169,8.0,13.0,87,0.00,,FEW300,0.00,0.00,VWS V14.01,2013-06-11 11:13:00,
2013-06-11 06:18:00,75.1,71.0,29.93,SSE,166,7.0,13.0,87,0.00,,FEW300,0.00,5.00,VWS V14.01,2013-06-11 11:18:00,
2013-06-11 06:20:00,75.8,71.0,29.92,SSW,200,6.0,11.0,85,0.00,,CLR,0.00,0.00,VWS V15.00,2013-06-11 11:20:00,
2013-06-11 06:23:00,74.9,71.1,29.93,SSW,202,5.0,11.0,88,0.00,,FEW300,0.00,7.00,VWS V14.01,2013-06-11 11:23:00,
2013-06-11 06:28:00,75.1,71.3,29.93,South,186,9.0,11.0,88,0.00,,FEW300,0.00,11.00,VWS V14.01,2013-06-11 11:28:00,
2013-06-11 06:30:00,75.6,70.8,29.92,South,188,4.0,11.0,85,0.00,,CLR,0.00,0.00,VWS V15.00,2013-06-11 11:30:00,
2013-06-11 06:33:00,74.9,71.1,29.95,SSE,168,6.0,12.0,88,0.00,,FEW300,0.00,16.00,VWS V14.01,2013-06-11 11:33:00,
2013-06-11 06:38:00,74.9,71.1,29.95,South,184,7.0,15.0,88,0.00,,FEW300,0.00,21.00,VWS V14.01,2013-06-11 11:38:00,
2013-06-11 06:40:00,75.6,71.1,29.92,SSW,207,6.0,10.0,86,0.00,,CLR,0.00,0.00,VWS V15.00,2013-06-11 11:40:00,
2013-06-11 06:43:00,74.9,71.4,29.95,SSW,208,9.0,12.0,89,0.00,,SCT300,0.00,26.00,VWS V14.01,2013-06-11 11:43:00,
2013-06-11 06:48:00,74.9,71.4,29.95,SW,216,9.0,13.0,89,0.00,,SCT300,0.00,33.00,VWS V14.01,2013-06-11 11:48:00,
2013-06-11 06:50:00,75.4,70.9,29.93,South,178,7.0,7.0,86,0.00,,CLR,0.00,0.00,VWS V15.00,2013-06-11 11:50:00,
2013-06-11 06:53:00,75.1,71.6,29.95,SSW,201,11.0,11.0,89,0.00,,SCT300,0.00,39.00,VWS V14.01,2013-06-11 11:53:00,
2013-06-11 06:58:00,74.9,71.8,29.95,SSW,200,9.0,14.0,90,0.00,,SCT300,0.00,46.00,VWS V14.01,2013-06-11 11:58:00,
2013-06-11 07:00:00,75.4,71.3,29.93,South,170,7.0,11.0,87,0.00,,CLR,0.00,0.00,VWS V15.00,2013-06-11 12:00:00,
2013-06-11 07:03:00,74.9,71.8,29.95,SSW,200,5.0,11.0,90,0.00,,SCT300,0.00,51.00,VWS V14.01,2013-06-11 12:03:00,
2013-06-11 07:08:00,74.9,71.8,29.95,SSW,196,5.0,12.0,90,0.00,,SCT300,0.00,56.00,VWS V14.01,2013-06-11 12:08:00,
2013-06-11 07:10:00,75.1,71.0,29.93,SSW,197,11.0,14.0,87,0.00,,CLR,0.00,0.00,VWS V15.00,2013-06-11 12:10:00,
2013-06-11 07:13:00,75.1,72.0,29.95,SSW,208,5.0,13.0,90,0.00,,SCT300,0.00,62.00,VWS V14.01,2013-06-11 12:13:00,
2013-06-11 07:18:00,75.1,71.6,29.95,SSW,200,5.0,13.0,89,0.00,,SCT300,0.00,65.00,VWS V14.01,2013-06-11 12:18:00,
2013-06-11 07:20:00,75.1,71.3,29.93,SSW,193,6.0,13.0,88,0.00,,CLR,0.00,7.00,VWS V15.00,2013-06-11 12:20:00,
2013-06-11 07:23:00,75.1,72.0,29.95,South,170,6.0,12.0,90,0.00,,SCT300,0.00,69.00,VWS V14.01,2013-06-11 12:23:00,
2013-06-11 07:28:00,75.3,72.2,29.95,South,190,5.0,12.0,90,0.00,,SCT300,0.00,70.00,VWS V14.01,2013-06-11 12:28:00,
2013-06-11 07:30:00,75.1,71.3,29.95,South,180,10.0,12.0,88,0.00,,CLR,0.00,14.00,VWS V15.00,2013-06-11 12:30:00,
2013-06-11 07:33:00,75.3,72.2,29.96,SSW,195,9.0,13.0,90,0.00,,SCT300,0.00,76.00,VWS V14.01,2013-06-11 12:33:00,
2013-06-11 07:38:00,75.4,72.3,29.96,SSW,211,9.0,13.0,90,0.00,,SCT300,0.00,149.00,VWS V14.01,2013-06-11 12:38:00,
2013-06-11 07:40:00,74.9,71.4,29.95,SSW,209,12.0,15.0,89,0.00,,CLR,0.00,25.00,VWS V15.00,2013-06-11 12:40:00,
2013-06-11 07:43:00,75.6,72.5,29.96,South,187,6.0,11.0,90,0.00,,SCT300,0.00,79.00,VWS V14.01,2013-06-11 12:43:00,
2013-06-11 07:48:00,75.8,72.7,29.96,SSW,205,5.0,12.0,90,0.00,,SCT300,0.00,77.00,VWS V14.01,2013-06-11 12:48:00,
2013-06-11 07:50:00,75.1,71.6,29.95,SSW,196,6.0,13.0,89,0.00,,CLR,0.00,37.00,VWS V15.00,2013-06-11 12:50:00,
2013-06-11 07:53:00,76.0,72.9,29.96,SSW,200,7.0,11.0,90,0.00,,SCT300,0.00,74.00,VWS V14.01,2013-06-11 12:53:00,
2013-06-11 07:58:00,76.0,72.9,29.96,SSW,197,6.0,13.0,90,0.00,,BKN300,0.00,72.00,VWS V14.01,2013-06-11 12:58:00,
2013-06-11 08:00:00,74.9,71.8,29.95,South,182,7.0,14.0,90,0.00,,CLR,0.00,49.00,VWS V15.00,2013-06-11 13:00:00,
2013-06-11 08:03:00,76.1,72.6,29.97,SSW,205,9.0,13.0,89,0.00,,BKN300,0.00,69.00,VWS V14.01,2013-06-11 13:03:00,
2013-06-11 08:08:00,76.3,72.8,29.97,South,180,10.0,13.0,89,0.00,,BKN300,0.00,70.00,VWS V14.01,2013-06-11 13:08:00,
2013-06-11 08:10:00,74.9,71.8,29.95,SSW,196,13.0,13.0,90,0.00,,CLR,0.00,60.00,VWS V15.00,2013-06-11 13:10:00,
2013-06-11 08:13:00,76.5,73.0,29.97,South,191,7.0,13.0,89,0.00,,BKN300,0.00,90.00,VWS V14.01,2013-06-11 13:13:00,
2013-06-11 08:18:00,76.8,73.3,29.98,SSW,200,5.0,13.0,89,0.00,,BKN300,0.00,313.00,VWS V14.01,2013-06-11 13:18:00,
2013-06-11 08:20:00,75.1,72.0,29.95,South,188,11.0,13.0,90,0.00,,CLR,0.00,70.00,VWS V15.00,2013-06-11 13:20:00,
2013-06-11 08:23:00,77.0,73.5,29.98,SW,222,7.0,9.0,89,0.00,,BKN300,0.00,137.00,VWS V14.01,2013-06-11 13:23:00,
2013-06-11 08:28:00,77.4,73.6,29.98,SSW,192,9.0,15.0,88,0.00,,BKN300,0.00,88.00,VWS V14.01,2013-06-11 13:28:00,
2013-06-11 08:30:00,75.3,72.2,29.96,SSW,205,9.0,15.0,90,0.00,,CLR,0.00,79.00,VWS V15.00,2013-06-11 13:30:00,
2013-06-11 08:33:00,77.6,73.8,29.98,South,186,6.0,12.0,88,0.00,,BKN300,0.00,188.00,VWS V14.01,2013-06-11 13:33:00,
2013-06-11 08:38:00,77.7,73.5,29.98,SSW,201,9.0,14.0,87,0.00,,BKN300,0.00,63.00,VWS V14.01,2013-06-11 13:38:00,
2013-06-11 08:40:00,75.6,72.5,29.96,South,188,7.0,13.0,90,0.00,,CLR,0.00,81.00,VWS V15.00,2013-06-11 13:40:00,
2013-06-11 08:43:00,78.1,73.6,29.98,SSW,205,13.0,13.0,86,0.00,,SCT300,0.00,67.00,VWS V14.01,2013-06-11 13:43:00,
2013-06-11 08:48:00,78.3,73.4,29.98,SSW,210,10.0,13.0,85,0.00,,SCT300,0.00,202.00,VWS V14.01,2013-06-11 13:48:00,
2013-06-11 08:50:00,76.0,72.9,29.96,South,176,8.0,12.0,90,0.00,,CLR,0.00,84.00,VWS V15.00,2013-06-11 13:50:00,
2013-06-11 08:53:00,78.6,73.7,29.98,SSW,197,10.0,11.0,85,0.00,,SCT300,0.00,406.00,VWS V14.01,2013-06-11 13:53:00,
2013-06-11 08:58:00,78.8,73.2,29.98,South,178,6.0,13.0,83,0.00,,SCT300,0.00,406.00,VWS V14.01,2013-06-11 13:58:00,
2013-06-11 09:00:00,76.1,73.0,29.97,SSW,194,10.0,13.0,90,0.00,,CLR,0.00,65.00,VWS V15.00,2013-06-11 14:00:00,
2013-06-11 09:03:00,79.2,73.6,29.98,SW,215,5.0,12.0,83,0.00,,SCT300,0.00,246.00,VWS V14.01,2013-06-11 14:03:00,
2013-06-11 09:08:00,79.6,73.6,29.98,SSW,202,7.0,12.0,82,0.00,,SCT300,0.00,236.00,VWS V14.01,2013-06-11 14:08:00,
2013-06-11 09:10:00,76.5,73.0,29.97,SSE,166,7.0,13.0,89,0.00,,CLR,0.00,83.00,VWS V15.00,2013-06-11 14:10:00,
2013-06-11 09:13:00,79.9,73.6,29.98,SSW,197,7.0,10.0,81,0.00,,SCT300,0.00,70.00,VWS V14.01,2013-06-11 14:13:00,
2013-06-11 09:18:00,80.3,73.6,29.98,SSW,205,3.0,10.0,80,0.00,,SCT300,0.00,499.00,VWS V14.01,2013-06-11 14:18:00,
2013-06-11 09:20:00,77.0,73.5,29.98,SSE,165,8.0,13.0,89,0.00,,CLR,0.00,102.00,VWS V15.00,2013-06-11 14:20:00,
2013-06-11 09:23:00,80.5,73.4,29.98,SSW,196,9.0,11.0,79,0.00,,SCT300,0.00,512.00,VWS V14.01,2013-06-11 14:23:00,
2013-06-11 09:28:00,80.7,73.2,29.98,SSE,166,4.0,12.0,78,0.00,,SCT300,0.00,526.00,VWS V14.01,2013-06-11 14:28:00,
2013-06-11 09:30:00,77.4,73.6,29.98,SW,217,10.0,15.0,88,0.00,,CLR,0.00,125.00,VWS V15.00,2013-06-11 14:30:00,
2013-06-11 09:33:00,80.7,73.6,29.98,South,191,8.0,9.0,79,0.00,,SCT300,0.00,538.00,VWS V14.01,2013-06-11 14:33:00,
2013-06-11 09:38:00,80.9,73.8,29.98,SSW,196,11.0,12.0,79,0.00,,SCT300,0.00,557.00,VWS V14.01,2013-06-11 14:38:00,
2013-06-11 09:40:00,77.9,73.7,29.98,SSW,206,11.0,14.0,87,0.00,,CLR,0.00,70.00,VWS V15.00,2013-06-11 14:40:00,
2013-06-11 09:43:00,80.9,73.8,29.98,South,178,10.0,13.0,79,0.00,,SCT250,0.00,571.00,VWS V14.01,2013-06-11 14:43:00,
2013-06-11 09:48:00,81.1,74.0,29.98,SSE,167,9.0,13.0,79,0.00,,SCT250,0.00,589.00,VWS V14.01,2013-06-11 14:48:00,
2013-06-11 09:50:00,78.5,73.6,29.98,SSW,205,6.0,15.0,85,0.00,,CLR,0.00,406.00,VWS V15.00,2013-06-11 14:50:00,
2013-06-11 09:53:00,81.4,74.3,29.98,South,180,11.0,11.0,79,0.00,,SCT250,0.00,610.00,VWS V14.01,2013-06-11 14:53:00,
2013-06-11 09:58:00,81.8,73.5,29.98,SSW,202,5.0,15.0,76,0.00,,SCT250,0.00,622.00,VWS V14.01,2013-06-11 14:58:00,
2013-06-11 10:00:00,79.0,73.4,29.98,SSW,197,5.0,13.0,83,0.00,,CLR,0.00,246.00,VWS V15.00,2013-06-11 15:00:00,
2013-06-11 10:03:00,82.4,73.7,29.98,SW,214,9.0,12.0,75,0.00,,SCT250,0.00,621.00,VWS V14.01,2013-06-11 15:03:00,
2013-06-11 10:08:00,82.8,73.3,29.98,South,189,7.0,12.0,73,0.00,,SCT250,0.00,615.00,VWS V14.01,2013-06-11 15:08:00,
2013-06-11 10:10:00,79.9,73.9,29.98,SW,215,6.0,12.0,82,0.00,,CLR,0.00,84.00,VWS V15.00,2013-06-11 15:10:00,
2013-06-11 10:13:00,82.8,72.0,29.98,SSW,205,10.0,14.0,70,0.00,,SCT250,0.00,664.00,VWS V14.01,2013-06-11 15:13:00,
2013-06-11 10:18:00,83.2,72.0,29.98,SSW,193,9.0,14.0,69,0.00,,SCT250,0.00,656.00,VWS V14.01,2013-06-11 15:18:00,
2013-06-11 10:20:00,80.5,73.4,29.98,SSW,196,5.0,11.0,79,0.00,,CLR,0.00,504.00,VWS V15.00,2013-06-11 15:20:00,
2013-06-11 10:23:00,83.6,72.4,29.98,SSW,210,9.0,15.0,69,0.00,,SCT250,0.00,671.00,VWS V14.01,2013-06-11 15:23:00,
2013-06-11 10:28:00,83.6,71.5,29.98,SW,219,11.0,15.0,67,0.00,,SCT250,0.00,652.00,VWS V14.01,2013-06-11 15:28:00,
2013-06-11 10:30:00,80.7,73.6,29.98,South,175,5.0,12.0,79,0.00,,OVC019,0.00,531.00,VWS V15.00,2013-06-11 15:30:00,
2013-06-11 10:33:00,84.0,71.9,29.98,SSW,206,10.0,15.0,67,0.00,,SCT250,0.00,722.00,VWS V14.01,2013-06-11 15:33:00,
2013-06-11 10:38:00,84.3,71.7,29.98,SSW,198,8.0,15.0,66,0.00,,SCT250,0.00,740.00,VWS V14.01,2013-06-11 15:38:00,
2013-06-11 10:40:00,80.9,73.8,29.98,South,186,9.0,12.0,79,0.00,,CLR,0.00,568.00,VWS V15.00,2013-06-11 15:40:00,
2013-06-11 10:43:00,84.7,72.1,29.98,SSW,205,4.0,10.0,66,0.00,,SCT250,0.00,754.00,VWS V14.01,2013-06-11 15:43:00,
2013-06-11 10:48:00,85.3,72.2,29.98,SSW,209,5.0,12.0,65,0.00,,SCT250,0.00,763.00,VWS V14.01,2013-06-11 15:48:00,
2013-06-11 10:50:00,81.2,74.1,29.98,South,188,8.0,13.0,79,0.00,,OVC019,0.00,603.00,VWS V15.00,2013-06-11 15:50:00,
2013-06-11 10:53:00,85.5,71.5,29.98,SSW,200,10.0,12.0,63,0.00,,SCT250,0.00,773.00,VWS V14.01,2013-06-11 15:53:00,
2013-06-11 10:58:00,85.7,71.2,29.98,SW,225,9.0,12.0,62,0.00,,SCT250,0.00,789.00,VWS V14.01,2013-06-11 15:58:00,
2013-06-11 11:00:00,82.2,73.5,29.98,SSW,200,9.0,15.0,75,0.00,,CLR,0.00,633.00,VWS V15.00,2013-06-11 16:00:00,
2013-06-11 11:03:00,85.9,70.4,29.97,SW,223,10.0,13.0,60,0.00,,SCT250,0.00,802.00,VWS V14.01,2013-06-11 16:03:00,
2013-06-11 11:08:00,86.1,71.1,29.97,WSW,242,6.0,13.0,61,0.00,,SCT250,0.00,807.00,VWS V14.01,2013-06-11 16:08:00,
2013-06-11 11:10:00,82.8,73.3,29.98,SSW,206,10.0,13.0,73,0.00,,CLR,0.00,654.00,VWS V15.00,2013-06-11 16:10:00,
2013-06-11 11:13:00,86.7,71.7,29.97,South,188,6.0,12.0,61,0.00,,SCT250,0.00,816.00,VWS V14.01,2013-06-11 16:13:00,
2013-06-11 11:18:00,87.0,71.9,29.97,SSW,193,5.0,12.0,61,0.00,,SCT250,0.00,833.00,VWS V14.01,2013-06-11 16:18:00,
2013-06-11 11:20:00,83.4,72.6,29.98,SW,224,9.0,14.0,70,0.00,,CLR,0.00,650.00,VWS V15.00,2013-06-11 16:20:00,
2013-06-11 11:23:00,87.2,71.6,29.97,South,178,5.0,13.0,60,0.00,,SCT250,0.00,844.00,VWS V14.01,2013-06-11 16:23:00,
2013-06-11 11:28:00,87.2,71.6,29.97,South,179,10.0,13.0,60,0.00,,SCT250,0.00,853.00,VWS V14.01,2013-06-11 16:28:00,
2013-06-11 11:30:00,83.8,71.7,29.98,SW,217,14.0,15.0,67,0.00,,OVC019,0.00,686.00,VWS V15.00,2013-06-11 16:30:00,
2013-06-11 11:33:00,87.4,71.3,29.97,SSW,196,5.0,12.0,59,0.00,,SCT250,0.00,860.00,VWS V14.01,2013-06-11 16:33:00,
2013-06-11 11:38:00,87.4,71.3,29.97,SSW,202,6.0,12.0,59,0.00,,SCT250,0.00,870.00,VWS V14.01,2013-06-11 16:38:00,
2013-06-11 11:40:00,84.5,71.9,29.98,SW,214,6.0,15.0,66,0.00,,CLR,0.00,752.00,VWS V15.00,2013-06-11 16:40:00,
2013-06-11 11:43:00,87.6,72.0,29.97,South,184,5.0,9.0,60,0.00,,SCT270,0.00,875.00,VWS V14.01,2013-06-11 16:43:00,
2013-06-11 11:48:00,87.6,72.5,29.98,SSW,205,6.0,12.0,61,0.00,,SCT270,0.00,884.00,VWS V14.01,2013-06-11 16:48:00,
2013-06-11 11:50:00,85.3,71.3,29.98,SW,215,4.0,12.0,63,0.00,,CLR,0.00,770.00,VWS V15.00,2013-06-11 16:50:00,
2013-06-11 11:53:00,87.6,71.5,29.98,SSW,199,5.0,11.0,59,0.00,,SCT270,0.00,900.00,VWS V14.01,2013-06-11 16:53:00,
2013-06-11 11:58:00,87.6,72.5,29.98,South,178,9.0,12.0,61,0.00,,SCT270,0.00,907.00,VWS V14.01,2013-06-11 16:58:00,
2013-06-11 12:00:00,86.1,71.6,29.97,SSW,203,12.0,14.0,62,0.00,,CLR,0.00,795.00,VWS V15.00,2013-06-11 17:00:00,
2013-06-11 12:03:00,87.6,72.5,29.98,SSW,192,8.0,11.0,61,0.00,,SCT270,0.00,914.00,VWS V14.01,2013-06-11 17:03:00,
2013-06-11 12:08:00,87.6,72.0,29.98,SSW,199,12.0,14.0,60,0.00,,SCT270,0.00,921.00,VWS V14.01,2013-06-11 17:08:00,
2013-06-11 12:10:00,86.5,71.0,29.97,SSW,203,6.0,13.0,60,0.00,,CLR,0.00,814.00,VWS V15.00,2013-06-11 17:10:00,
2013-06-11 12:13:00,87.6,72.0,29.98,SSE,165,11.0,12.0,60,0.00,,SCT270,0.00,954.00,VWS V14.01,2013-06-11 17:13:00,
2013-06-11 12:18:00,87.6,71.5,29.98,South,190,9.0,15.0,59,0.00,,SCT270,0.00,951.00,VWS V14.01,2013-06-11 17:18:00,
2013-06-11 12:20:00,87.2,72.1,29.97,SSW,208,11.0,12.0,61,0.00,,CLR,0.00,835.00,VWS V15.00,2013-06-11 17:20:00,
2013-06-11 12:23:00,87.8,72.2,29.98,SSW,194,5.0,11.0,60,0.00,,SCT270,0.00,962.00,VWS V14.01,2013-06-11 17:23:00,
2013-06-11 12:28:00,88.0,72.4,29.98,South,178,7.0,12.0,60,0.00,,SCT270,0.00,997.00,VWS V14.01,2013-06-11 17:28:00,
2013-06-11 12:30:00,87.2,71.1,29.97,SSW,199,7.0,13.0,59,0.00,,CLR,0.00,856.00,VWS V15.00,2013-06-11 17:30:00,
2013-06-11 12:33:00,88.0,73.4,29.98,South,175,7.0,11.0,62,0.00,,SCT270,0.00,988.00,VWS V14.01,2013-06-11 17:33:00,
2013-06-11 12:38:00,88.2,72.6,29.98,SSE,165,10.0,14.0,60,0.00,,SCT270,0.00,990.00,VWS V14.01,2013-06-11 17:38:00,
2013-06-11 12:40:00,87.6,71.5,29.97,SSW,196,7.0,12.0,59,0.00,,CLR,0.00,874.00,VWS V15.00,2013-06-11 17:40:00,
2013-06-11 12:43:00,88.2,73.1,29.98,SSE,160,11.0,12.0,61,0.00,,SCT270,0.00,991.00,VWS V14.01,2013-06-11 17:43:00,
2013-06-11 12:48:00,88.2,73.1,29.98,South,182,9.0,13.0,61,0.00,,SCT270,0.00,1020.00,VWS V14.01,2013-06-11 17:48:00,
2013-06-11 12:50:00,87.6,72.5,29.98,South,179,6.0,14.0,61,0.00,,OVC019,0.00,896.00,VWS V15.00,2013-06-11 17:50:00,
2013-06-11 12:53:00,88.8,72.1,29.98,South,176,13.0,13.0,58,0.00,,SCT270,0.00,976.00,VWS V14.01,2013-06-11 17:53:00,
2013-06-11 12:58:00,88.8,72.6,29.98,South,188,7.0,13.0,59,0.00,,SCT270,0.00,1021.00,VWS V14.01,2013-06-11 17:58:00,
2013-06-11 13:00:00,87.6,72.5,29.98,South,188,9.0,13.0,61,0.00,,CLR,0.00,907.00,VWS V15.00,2013-06-11 18:00:00,
2013-06-11 13:03:00,88.8,71.6,29.97,South,179,8.0,14.0,57,0.00,,SCT270,0.00,969.00,VWS V14.01,2013-06-11 18:03:00,
2013-06-11 13:08:00,89.3,72.6,29.97,SSW,198,6.0,14.0,58,0.00,,SCT270,0.00,976.00,VWS V14.01,2013-06-11 18:08:00,
2013-06-11 13:10:00,87.6,72.5,29.98,SSW,192,8.0,14.0,61,0.00,,CLR,0.00,935.00,VWS V15.00,2013-06-11 18:10:00,
2013-06-11 13:13:00,89.5,71.7,29.97,South,178,10.0,11.0,56,0.00,,SCT270,0.00,995.00,VWS V14.01,2013-06-11 18:13:00,
2013-06-11 13:18:00,89.3,72.1,29.97,SW,218,6.0,14.0,57,0.00,,SCT270,0.00,981.00,VWS V14.01,2013-06-11 18:18:00,
2013-06-11 13:20:00,87.8,71.7,29.98,South,178,9.0,15.0,59,0.00,,CLR,0.00,962.00,VWS V15.00,2013-06-11 18:20:00,
2013-06-11 13:23:00,89.5,71.7,29.97,South,180,5.0,15.0,56,0.00,,SCT270,0.00,976.00,VWS V14.01,2013-06-11 18:23:00,
2013-06-11 13:28:00,90.1,71.2,29.97,SSE,167,8.0,15.0,54,0.00,,SCT270,0.00,983.00,VWS V14.01,2013-06-11 18:28:00,
2013-06-11 13:30:00,88.0,72.9,29.98,SSE,161,6.0,12.0,61,0.00,,CLR,0.00,976.00,VWS V15.00,2013-06-11 18:30:00,
2013-06-11 13:33:00,89.9,72.1,29.96,South,186,8.0,13.0,56,0.00,,SCT270,0.00,983.00,VWS V14.01,2013-06-11 18:33:00,
2013-06-11 13:38:00,89.7,70.9,29.96,South,180,11.0,13.0,54,0.00,,SCT270,0.00,977.00,VWS V14.01,2013-06-11 18:38:00,
2013-06-11 13:40:00,88.2,72.1,29.98,South,189,12.0,14.0,59,0.00,,CLR,0.00,1007.00,VWS V15.00,2013-06-11 18:40:00,
2013-06-11 13:43:00,89.7,71.9,29.96,South,182,10.0,12.0,56,0.00,,SCT270,0.00,976.00,VWS V14.01,2013-06-11 18:43:00,
2013-06-11 13:48:00,89.7,71.4,29.96,South,189,12.0,14.0,55,0.00,,SCT270,0.00,984.00,VWS V14.01,2013-06-11 18:48:00,
2013-06-11 13:50:00,88.4,72.8,29.98,SSW,201,8.0,13.0,60,0.00,,CLR,0.00,986.00,VWS V15.00,2013-06-11 18:50:00,
2013-06-11 13:53:00,90.1,71.2,29.96,SSW,207,12.0,12.0,54,0.00,,SCT270,0.00,995.00,VWS V14.01,2013-06-11 18:53:00,
2013-06-11 13:58:00,90.1,71.2,29.96,South,180,11.0,15.0,54,0.00,,SCT270,0.00,981.00,VWS V14.01,2013-06-11 18:58:00,
2013-06-11 14:00:00,88.8,71.6,29.97,South,190,10.0,13.0,57,0.00,,CLR,0.00,988.00,VWS V15.00,2013-06-11 19:00:00,
2013-06-11 14:03:00,90.1,70.1,29.95,South,180,8.0,16.0,52,0.00,,SCT270,0.00,991.00,VWS V14.01,2013-06-11 19:03:00,
2013-06-11 14:08:00,89.9,72.1,29.95,South,185,12.0,16.0,56,0.00,,SCT270,0.00,1011.00,VWS V14.01,2013-06-11 19:08:00,
2013-06-11 14:10:00,89.7,72.4,29.97,South,178,9.0,14.0,57,0.00,,CLR,0.00,988.00,VWS V15.00,2013-06-11 19:10:00,
2013-06-11 14:13:00,89.5,70.7,29.95,SW,234,12.0,14.0,54,0.00,,SCT270,0.00,1049.00,VWS V14.01,2013-06-11 19:13:00,
2013-06-11 14:18:00,89.3,71.0,29.94,SSW,199,9.0,16.0,55,0.00,,SCT270,0.00,974.00,VWS V14.01,2013-06-11 19:18:00,
2013-06-11 14:20:00,89.5,72.3,29.97,SSW,200,6.0,14.0,57,0.00,,OVC019,0.00,979.00,VWS V15.00,2013-06-11 19:20:00,
2013-06-11 14:23:00,90.1,71.2,29.94,SSW,202,4.0,12.0,54,0.00,,SCT270,0.00,1060.00,VWS V14.01,2013-06-11 19:23:00,
2013-06-11 14:28:00,90.5,71.6,29.94,SSW,192,11.0,13.0,54,0.00,,SCT270,0.00,1021.00,VWS V14.01,2013-06-11 19:28:00,
2013-06-11 14:30:00,90.1,71.8,29.96,South,174,5.0,15.0,55,0.00,,CLR,0.00,983.00,VWS V15.00,2013-06-11 19:30:00,
2013-06-11 14:33:00,90.1,72.3,29.94,SSW,211,13.0,15.0,56,0.00,,SCT270,0.00,944.00,VWS V14.01,2013-06-11 19:33:00,
2013-06-11 14:38:00,90.1,70.7,29.94,SW,222,10.0,16.0,53,0.00,,SCT270,0.00,935.00,VWS V14.01,2013-06-11 19:38:00,
2013-06-11 14:40:00,89.7,71.9,29.96,SSW,204,5.0,13.0,56,0.00,,CLR,0.00,1013.00,VWS V15.00,2013-06-11 19:40:00,
2013-06-11 14:43:00,90.7,71.2,29.94,SW,224,10.0,14.0,53,0.00,,SCT270,0.00,951.00,VWS V14.01,2013-06-11 19:43:00,
2013-06-11 14:48:00,90.7,71.8,29.93,South,184,5.0,14.0,54,0.00,,SCT270,0.00,928.00,VWS V14.01,2013-06-11 19:48:00,
2013-06-11 14:50:00,89.9,71.6,29.96,SSW,196,10.0,14.0,55,0.00,,CLR,0.00,1014.00,VWS V15.00,2013-06-11 19:50:00,
2013-06-11 14:53:00,90.5,70.5,29.93,South,182,4.0,17.0,52,0.00,,SCT270,0.00,919.00,VWS V14.01,2013-06-11 19:53:00,
2013-06-11 14:58:00,91.0,70.9,29.93,SSE,162,11.0,17.0,52,0.00,,SCT270,0.00,940.00,VWS V14.01,2013-06-11 19:58:00,
2013-06-11 15:00:00,90.1,71.2,29.95,SSW,195,12.0,15.0,54,0.00,,CLR,0.00,983.00,VWS V15.00,2013-06-11 20:00:00,
2013-06-11 15:03:00,90.5,70.5,29.93,SSW,201,10.0,14.0,52,0.00,,SCT270,0.00,944.00,VWS V14.01,2013-06-11 20:03:00,
2013-06-11 15:08:00,90.3,69.7,29.93,SSW,209,7.0,15.0,51,0.00,,SCT270,0.00,898.00,VWS V14.01,2013-06-11 20:08:00,
2013-06-11 15:10:00,89.7,70.9,29.95,South,170,10.0,16.0,54,0.00,,CLR,0.00,1049.00,VWS V15.00,2013-06-11 20:10:00,
2013-06-11 15:13:00,90.5,70.5,29.93,SSW,213,9.0,15.0,52,0.00,,SCT270,0.00,921.00,VWS V14.01,2013-06-11 20:13:00,
2013-06-11 15:18:00,90.5,70.5,29.93,South,180,5.0,15.0,52,0.00,,SCT270,0.00,904.00,VWS V14.01,2013-06-11 20:18:00,
2013-06-11 15:20:00,89.7,71.4,29.94,SSW,206,7.0,16.0,55,0.00,,CLR,0.00,1048.00,VWS V15.00,2013-06-11 20:20:00,
2013-06-11 15:23:00,91.0,70.4,29.93,South,179,8.0,15.0,51,0.00,,SCT270,0.00,875.00,VWS V14.01,2013-06-11 20:23:00,
2013-06-11 15:28:00,91.4,69.6,29.93,SSW,202,6.0,16.0,49,0.00,,SCT270,0.00,921.00,VWS V14.01,2013-06-11 20:28:00,
2013-06-11 15:30:00,90.3,70.9,29.94,South,179,5.0,15.0,53,0.00,,CLR,0.00,979.00,VWS V15.00,2013-06-11 20:30:00,
2013-06-11 15:33:00,91.4,71.3,29.93,South,190,7.0,12.0,52,0.00,,SCT270,0.00,304.00,VWS V14.01,2013-06-11 20:33:00,
2013-06-11 15:38:00,90.7,70.7,29.93,SW,217,7.0,13.0,52,0.00,,SCT270,0.00,287.00,VWS V14.01,2013-06-11 20:38:00,
2013-06-11 15:40:00,90.5,71.6,29.94,South,175,10.0,16.0,54,0.00,,CLR,0.00,939.00,VWS V15.00,2013-06-11 20:40:00,
2013-06-11 15:43:00,90.5,71.6,29.93,South,175,11.0,12.0,54,0.00,,SCT270,0.00,911.00,VWS V14.01,2013-06-11 20:43:00,
2013-06-11 15:48:00,90.7,70.7,29.92,SSW,196,6.0,12.0,52,0.00,,SCT270,0.00,844.00,VWS V14.01,2013-06-11 20:48:00,
2013-06-11 15:50:00,90.5,69.9,29.93,South,173,13.0,14.0,51,0.00,,CLR,0.00,921.00,VWS V15.00,2013-06-11 20:50:00,
2013-06-11 15:53:00,91.0,70.4,29.92,SSW,196,13.0,14.0,51,0.00,,SCT270,0.00,250.00,VWS V14.01,2013-06-11 20:53:00,
2013-06-11 15:58:00,91.0,70.9,29.92,SSW,196,12.0,14.0,52,0.00,,SCT270,0.00,796.00,VWS V14.01,2013-06-11 20:58:00,
2013-06-11 16:00:00,90.7,70.1,29.93,SSW,194,9.0,17.0,51,0.00,,CLR,0.00,940.00,VWS V15.00,2013-06-11 21:00:00,
2013-06-11 16:03:00,91.0,71.5,29.92,South,190,9.0,11.0,53,0.00,,SCT270,0.00,777.00,VWS V14.01,2013-06-11 21:03:00,
2013-06-11 16:08:00,91.0,69.8,29.92,South,191,7.0,14.0,50,0.00,,SCT270,0.00,738.00,VWS V14.01,2013-06-11 21:08:00,
2013-06-11 16:10:00,90.3,68.6,29.93,South,189,11.0,15.0,49,0.00,,CLR,0.00,926.00,VWS V15.00,2013-06-11 21:10:00,
2013-06-11 16:13:00,91.0,70.4,29.92,South,171,11.0,13.0,51,0.00,,SCT270,0.00,798.00,VWS V14.01,2013-06-11 21:13:00,
2013-06-11 16:18:00,91.0,70.4,29.92,SSW,206,10.0,13.0,51,0.00,,SCT270,0.00,722.00,VWS V14.01,2013-06-11 21:18:00,
2013-06-11 16:20:00,90.7,70.7,29.93,SSW,207,11.0,15.0,52,0.00,,CLR,0.00,882.00,VWS V15.00,2013-06-11 21:20:00,
2013-06-11 16:23:00,91.2,70.0,29.92,South,188,7.0,13.0,50,0.00,,SCT270,0.00,594.00,VWS V14.01,2013-06-11 21:23:00,
2013-06-11 16:28:00,91.2,71.1,29.92,SSW,199,6.0,14.0,52,0.00,,SCT270,0.00,729.00,VWS V14.01,2013-06-11 21:28:00,
2013-06-11 16:30:00,91.6,70.3,29.93,SSW,206,7.0,16.0,50,0.00,,CLR,0.00,933.00,VWS V15.00,2013-06-11 21:30:00,
2013-06-11 16:33:00,91.2,70.0,29.92,South,188,5.0,13.0,50,0.00,,SCT270,0.00,708.00,VWS V14.01,2013-06-11 21:33:00,
2013-06-11 16:38:00,91.2,69.4,29.92,SSE,161,9.0,13.0,49,0.00,,SCT270,0.00,693.00,VWS V14.01,2013-06-11 21:38:00,
2013-06-11 16:40:00,90.5,71.6,29.93,SSW,204,7.0,15.0,54,0.00,,CLR,0.00,911.00,VWS V15.00,2013-06-11 21:40:00,
2013-06-11 16:43:00,91.4,69.6,29.92,South,191,9.0,13.0,49,0.00,,SCT330,0.00,677.00,VWS V14.01,2013-06-11 21:43:00,
2013-06-11 16:48:00,91.6,69.8,29.92,SSW,196,9.0,14.0,49,0.00,,SCT330,0.00,664.00,VWS V14.01,2013-06-11 21:48:00,
2013-06-11 16:50:00,91.0,69.8,29.92,SSW,202,11.0,12.0,50,0.00,,CLR,0.00,947.00,VWS V15.00,2013-06-11 21:50:00,
2013-06-11 16:53:00,91.6,70.9,29.92,South,169,11.0,16.0,51,0.00,,SCT330,0.00,656.00,VWS V14.01,2013-06-11 21:53:00,
2013-06-11 16:58:00,91.6,70.3,29.92,SSW,212,11.0,16.0,50,0.00,,SCT330,0.00,638.00,VWS V14.01,2013-06-11 21:58:00,
2013-06-11 17:00:00,90.7,71.2,29.92,South,183,7.0,14.0,53,0.00,,CLR,0.00,780.00,VWS V15.00,2013-06-11 22:00:00,
2013-06-11 17:03:00,92.1,70.8,29.91,SSW,204,4.0,7.0,50,0.00,,SCT330,0.00,675.00,VWS V14.01,2013-06-11 22:03:00,
2013-06-11 17:08:00,92.3,69.8,29.91,SSW,199,7.0,12.0,48,0.00,,SCT330,0.00,657.00,VWS V14.01,2013-06-11 22:08:00,
2013-06-11 17:10:00,91.2,71.1,29.92,SSW,199,12.0,14.0,52,0.00,,CLR,0.00,758.00,VWS V15.00,2013-06-11 22:10:00,
2013-06-11 17:13:00,92.1,70.8,29.91,South,171,7.0,11.0,50,0.00,,SCT330,0.00,596.00,VWS V14.01,2013-06-11 22:13:00,
2013-06-11 17:18:00,92.1,70.8,29.91,SSW,196,5.0,11.0,50,0.00,,SCT330,0.00,577.00,VWS V14.01,2013-06-11 22:18:00,
2013-06-11 17:20:00,91.2,70.6,29.92,SSW,195,5.0,13.0,51,0.00,,CLR,0.00,751.00,VWS V15.00,2013-06-11 22:20:00,
2013-06-11 17:23:00,92.1,70.2,29.91,SSE,167,7.0,13.0,49,0.00,,SCT330,0.00,568.00,VWS V14.01,2013-06-11 22:23:00,
2013-06-11 17:28:00,92.1,71.4,29.91,South,191,7.0,13.0,51,0.00,,SCT330,0.00,564.00,VWS V14.01,2013-06-11 22:28:00,
2013-06-11 17:30:00,91.4,70.2,29.92,SSW,206,11.0,14.0,50,0.00,,CLR,0.00,708.00,VWS V15.00,2013-06-11 22:30:00,
2013-06-11 17:33:00,92.1,70.2,29.90,SSE,163,7.0,9.0,49,0.00,,SCT330,0.00,533.00,VWS V14.01,2013-06-11 22:33:00,
2013-06-11 17:38:00,92.1,69.6,29.90,SSW,210,9.0,12.0,48,0.00,,SCT330,0.00,517.00,VWS V14.01,2013-06-11 22:38:00,
2013-06-11 17:40:00,91.4,70.7,29.92,SW,218,13.0,13.0,51,0.00,,CLR,0.00,680.00,VWS V15.00,2013-06-11 22:40:00,
2013-06-11 17:43:00,92.5,70.6,29.90,SSW,193,6.0,10.0,49,0.00,,SCT330,0.00,411.00,VWS V14.01,2013-06-11 22:43:00,
2013-06-11 17:48:00,92.3,71.6,29.89,SSW,209,6.0,12.0,51,0.00,,SCT330,0.00,501.00,VWS V14.01,2013-06-11 22:48:00,
2013-06-11 17:50:00,91.6,70.3,29.92,South,182,7.0,14.0,50,0.00,,CLR,0.00,654.00,VWS V15.00,2013-06-11 22:50:00,
2013-06-11 17:53:00,92.1,70.2,29.89,SSW,206,13.0,15.0,49,0.00,,SCT330,0.00,404.00,VWS V14.01,2013-06-11 22:53:00,
2013-06-11 17:58:00,91.6,71.5,29.89,SSW,201,5.0,16.0,52,0.00,,SCT330,0.00,439.00,VWS V14.01,2013-06-11 22:58:00,
2013-06-11 18:00:00,91.8,71.1,29.91,South,188,4.0,16.0,51,0.00,,CLR,0.00,666.00,VWS V15.00,2013-06-11 23:00:00,
2013-06-11 18:03:00,91.6,71.5,29.89,SSW,197,12.0,12.0,52,0.00,,SCT330,0.00,424.00,VWS V14.01,2013-06-11 23:03:00,
2013-06-11 18:08:00,91.2,71.7,29.89,SSW,199,6.0,13.0,53,0.00,,SCT330,0.00,406.00,VWS V14.01,2013-06-11 23:08:00,
2013-06-11 18:10:00,92.1,70.8,29.91,South,176,6.0,12.0,50,0.00,,CLR,0.00,598.00,VWS V15.00,2013-06-11 23:10:00,
2013-06-11 18:13:00,91.2,71.1,29.89,SSW,211,14.0,14.0,52,0.00,,SCT330,0.00,394.00,VWS V14.01,2013-06-11 23:13:00,
2013-06-11 18:18:00,91.2,71.7,29.89,South,182,4.0,14.0,53,0.00,,SCT330,0.00,367.00,VWS V14.01,2013-06-11 23:18:00,
2013-06-11 18:20:00,92.1,71.4,29.91,SSW,193,10.0,11.0,51,0.00,,CLR,0.00,564.00,VWS V15.00,2013-06-11 23:20:00,
2013-06-11 18:23:00,91.4,71.9,29.89,South,189,6.0,11.0,53,0.00,,SCT330,0.00,352.00,VWS V14.01,2013-06-11 23:23:00,
2013-06-11 18:28:00,91.2,72.2,29.89,SSW,206,5.0,11.0,54,0.00,,SCT330,0.00,336.00,VWS V14.01,2013-06-11 23:28:00,
2013-06-11 18:30:00,91.8,69.9,29.90,South,185,6.0,13.0,49,0.00,,CLR,0.00,531.00,VWS V15.00,2013-06-11 23:30:00,
2013-06-11 18:33:00,91.2,71.7,29.88,South,182,10.0,11.0,53,0.00,,SCT330,0.00,322.00,VWS V14.01,2013-06-11 23:33:00,
2013-06-11 18:38:00,91.2,72.2,29.88,SSW,210,6.0,11.0,54,0.00,,SCT330,0.00,248.00,VWS V14.01,2013-06-11 23:38:00,
2013-06-11 18:40:00,92.3,70.4,29.90,SW,219,9.0,12.0,49,0.00,,CLR,0.00,497.00,VWS V15.00,2013-06-11 23:40:00,
2013-06-11 18:43:00,91.2,72.2,29.88,South,182,4.0,10.0,54,0.00,,SCT330,0.00,290.00,VWS V14.01,2013-06-11 23:43:00,
2013-06-11 18:48:00,91.2,72.2,29.87,SSW,200,5.0,10.0,54,0.00,,SCT330,0.00,272.00,VWS V14.01,2013-06-11 23:48:00,
2013-06-11 18:50:00,92.1,71.4,29.89,SSE,165,6.0,12.0,51,0.00,,CLR,0.00,504.00,VWS V15.00,2013-06-11 23:50:00,
2013-06-11 18:53:00,91.0,72.6,29.87,SSW,207,6.0,10.0,55,0.00,,SCT330,0.00,253.00,VWS V14.01,2013-06-11 23:53:00,
2013-06-11 18:58:00,90.5,71.6,29.87,SSW,193,5.0,13.0,54,0.00,,SCT330,0.00,51.00,VWS V14.01,2013-06-11 23:58:00,
2013-06-11 19:00:00,91.6,70.9,29.89,SSW,204,12.0,16.0,51,0.00,,CLR,0.00,434.00,VWS V15.00,2013-06-12 00:00:00,
2013-06-11 19:03:00,90.1,71.2,29.87,SSW,196,7.0,12.0,54,0.00,,SCT330,0.00,160.00,VWS V14.01,2013-06-12 00:03:00,
2013-06-11 19:08:00,90.1,70.7,29.87,SSW,200,8.0,12.0,53,0.00,,SCT330,0.00,207.00,VWS V14.01,2013-06-12 00:08:00,
2013-06-11 19:10:00,91.2,71.1,29.89,SSW,200,13.0,14.0,52,0.00,,CLR,0.00,397.00,VWS V15.00,2013-06-12 00:10:00,
2013-06-11 19:13:00,90.3,71.4,29.87,SSW,194,4.0,7.0,54,0.00,,SCT330,0.00,192.00,VWS V14.01,2013-06-12 00:13:00,
2013-06-11 19:18:00,90.5,71.6,29.87,SSW,205,6.0,10.0,54,0.00,,SCT330,0.00,178.00,VWS V14.01,2013-06-12 00:18:00,
2013-06-11 19:20:00,91.4,71.9,29.89,SSW,196,5.0,14.0,53,0.00,,CLR,0.00,359.00,VWS V15.00,2013-06-12 00:20:00,
2013-06-11 19:23:00,90.3,71.4,29.87,South,183,4.0,9.0,54,0.00,,SCT330,0.00,163.00,VWS V14.01,2013-06-12 00:23:00,
2013-06-11 19:28:00,90.3,71.4,29.87,SSW,196,4.0,9.0,54,0.00,,SCT330,0.00,148.00,VWS V14.01,2013-06-12 00:28:00,
2013-06-11 19:30:00,91.2,72.2,29.88,SSW,209,7.0,11.0,54,0.00,,OVC019,0.00,334.00,VWS V15.00,2013-06-12 00:30:00,
2013-06-11 19:33:00,90.1,71.8,29.88,SSW,195,5.0,9.0,55,0.00,,SCT330,0.00,134.00,VWS V14.01,2013-06-12 00:33:00,
2013-06-11 19:38:00,89.9,70.5,29.88,SSE,166,8.0,13.0,53,0.00,,SCT330,0.00,114.00,VWS V14.01,2013-06-12 00:38:00,
2013-06-11 19:40:00,91.2,72.2,29.88,SSW,200,5.0,11.0,54,0.00,,CLR,0.00,294.00,VWS V15.00,2013-06-12 00:40:00,
2013-06-11 19:43:00,89.9,70.5,29.88,SSW,207,6.0,9.0,53,0.00,,SCT330,0.00,102.00,VWS V14.01,2013-06-12 00:43:00,
2013-06-11 19:48:00,89.9,69.9,29.88,SSW,192,5.0,10.0,52,0.00,,SCT330,0.00,91.00,VWS V14.01,2013-06-12 00:48:00,
2013-06-11 19:50:00,91.0,72.6,29.87,SSW,200,7.0,10.0,55,0.00,,OVC019,0.00,265.00,VWS V15.00,2013-06-12 00:50:00,
2013-06-11 19:53:00,89.9,69.9,29.88,SSW,212,8.0,8.0,52,0.00,,SCT330,0.00,77.00,VWS V14.01,2013-06-12 00:53:00,
2013-06-11 19:58:00,89.9,69.9,29.88,SSW,192,6.0,11.0,52,0.00,,SCT330,0.00,63.00,VWS V14.01,2013-06-12 00:58:00,
2013-06-11 20:00:00,90.3,71.4,29.87,SSW,205,7.0,13.0,54,0.00,,OVC019,0.00,227.00,VWS V15.00,2013-06-12 01:00:00,
2013-06-11 20:03:00,89.7,69.8,29.88,SSW,208,7.0,9.0,52,0.00,,SCT330,0.00,51.00,VWS V14.01,2013-06-12 01:03:00,
2013-06-11 20:08:00,89.7,69.8,29.88,SSW,201,5.0,11.0,52,0.00,,SCT330,0.00,40.00,VWS V14.01,2013-06-12 01:08:00,
2013-06-11 20:10:00,90.3,70.9,29.87,South,190,5.0,12.0,53,0.00,,OVC019,0.00,199.00,VWS V15.00,2013-06-12 01:10:00,
2013-06-11 20:13:00,89.5,69.6,29.88,SSW,212,4.0,10.0,52,0.00,,SCT330,0.00,28.00,VWS V14.01,2013-06-12 01:13:00,
2013-06-11 20:18:00,89.3,69.9,29.88,SSW,211,4.0,10.0,53,0.00,,SCT330,0.00,18.00,VWS V14.01,2013-06-12 01:18:00,
2013-06-11 20:20:00,90.3,71.4,29.87,South,175,3.0,10.0,54,0.00,,CLR,0.00,169.00,VWS V15.00,2013-06-12 01:20:00,
2013-06-11 20:23:00,89.0,69.7,29.88,SSW,199,3.0,6.0,53,0.00,,SCT330,0.00,12.00,VWS V14.01,2013-06-12 01:23:00,
2013-06-11 20:28:00,88.8,70.0,29.88,SSW,199,3.0,6.0,54,0.00,,SCT330,0.00,9.00,VWS V14.01,2013-06-12 01:28:00,
2013-06-11 20:30:00,90.3,71.9,29.88,SSW,200,6.0,9.0,55,0.00,,OVC019,0.00,139.00,VWS V15.00,2013-06-12 01:30:00,
2013-06-11 20:33:00,88.8,70.0,29.88,SSW,196,5.0,5.0,54,0.00,,SCT330,0.00,7.00,VWS V14.01,2013-06-12 01:33:00,
2013-06-11 20:38:00,88.6,72.4,29.88,SSW,202,12.0,14.0,59,0.00,,SCT330,0.00,0.00,VWS V14.01,2013-06-12 01:38:00,
2013-06-11 20:40:00,89.9,70.5,29.88,SSW,197,7.0,13.0,53,0.00,,OVC019,0.00,111.00,VWS V15.00,2013-06-12 01:40:00,
2013-06-11 20:43:00,87.6,72.5,29.88,South,185,12.0,16.0,61,0.00,,BKN330,0.00,0.00,VWS V14.01,2013-06-12 01:43:00,
2013-06-11 20:48:00,87.2,72.6,29.89,South,189,11.0,17.0,62,0.00,,BKN330,0.00,0.00,VWS V14.01,2013-06-12 01:48:00,
2013-06-11 20:50:00,89.9,69.9,29.88,South,187,6.0,10.0,52,0.00,,OVC019,0.00,83.00,VWS V15.00,2013-06-12 01:50:00,
2013-06-11 20:53:00,86.7,73.1,29.89,SSW,200,12.0,16.0,64,0.00,,BKN330,0.00,0.00,VWS V14.01,2013-06-12 01:53:00,
2013-06-11 20:58:00,86.5,72.9,29.89,South,191,11.0,16.0,64,0.00,,BKN330,0.00,0.00,VWS V14.01,2013-06-12 01:58:00,
2013-06-11 21:00:00,89.7,69.2,29.88,SSW,202,5.0,11.0,51,0.00,,CLR,0.00,56.00,VWS V15.00,2013-06-12 02:00:00,
2013-06-11 21:03:00,86.1,73.4,29.89,South,178,15.0,15.0,66,0.00,,BKN330,0.00,0.00,VWS V14.01,2013-06-12 02:03:00,
2013-06-11 21:08:00,85.9,73.7,29.89,South,185,10.0,17.0,67,0.00,,BKN330,0.00,0.00,VWS V14.01,2013-06-12 02:08:00,
2013-06-11 21:10:00,89.5,69.6,29.88,SW,230,5.0,11.0,52,0.00,,CLR,0.00,32.00,VWS V15.00,2013-06-12 02:10:00,
2013-06-11 21:13:00,85.7,73.5,29.89,South,184,12.0,16.0,67,0.00,,BKN330,0.00,0.00,VWS V14.01,2013-06-12 02:13:00,
2013-06-11 21:18:00,85.5,73.7,29.89,SW,221,6.0,16.0,68,0.00,,BKN330,0.00,0.00,VWS V14.01,2013-06-12 02:18:00,
2013-06-11 21:20:00,89.3,70.5,29.88,SSW,201,5.0,10.0,54,0.00,,CLR,0.00,14.00,VWS V15.00,2013-06-12 02:20:00,
2013-06-11 21:23:00,85.3,74.0,29.89,South,174,8.0,12.0,69,0.00,,BKN330,0.00,0.00,VWS V14.01,2013-06-12 02:23:00,
2013-06-11 21:28:00,84.9,73.2,29.89,SSE,157,12.0,14.0,68,0.00,,BKN330,0.00,0.00,VWS V14.01,2013-06-12 02:28:00,
2013-06-11 21:30:00,88.8,69.5,29.88,SSW,199,4.0,6.0,53,0.00,,CLR,0.00,9.00,VWS V15.00,2013-06-12 02:30:00,
2013-06-11 21:33:00,84.9,73.6,29.89,SSW,206,11.0,12.0,69,0.00,,BKN330,0.00,0.00,VWS V14.01,2013-06-12 02:33:00,
2013-06-11 21:38:00,84.9,73.6,29.89,South,189,10.0,15.0,69,0.00,,BKN330,0.00,0.00,VWS V14.01,2013-06-12 02:38:00,
2013-06-11 21:40:00,88.0,72.9,29.88,South,186,11.0,19.0,61,0.00,,CLR,0.00,0.00,VWS V15.00,2013-06-12 02:40:00,
2013-06-11 21:43:00,84.7,73.4,29.89,South,186,9.0,13.0,69,0.00,,BKN330,0.00,0.00,VWS V14.01,2013-06-12 02:43:00,
2013-06-11 21:48:00,84.5,73.7,29.90,South,187,5.0,14.0,70,0.00,,BKN330,0.00,0.00,VWS V14.01,2013-06-12 02:48:00,
2013-06-11 21:50:00,87.0,73.4,29.89,SSW,198,9.0,17.0,64,0.00,,CLR,0.00,0.00,VWS V15.00,2013-06-12 02:50:00,
2013-06-11 21:53:00,84.3,73.9,29.90,South,180,9.0,14.0,71,0.00,,BKN330,0.00,0.00,VWS V14.01,2013-06-12 02:53:00,
2013-06-11 21:58:00,84.1,73.7,29.90,SSW,202,13.0,14.0,71,0.00,,BKN330,0.00,0.00,VWS V14.01,2013-06-12 02:58:00,
2013-06-11 22:00:00,86.3,73.2,29.89,South,175,11.0,16.0,65,0.00,,CLR,0.00,0.00,VWS V15.00,2013-06-12 03:00:00,
2013-06-11 22:03:00,84.0,74.0,29.90,SSE,161,6.0,11.0,72,0.00,,BKN330,0.00,0.00,VWS V14.01,2013-06-12 03:03:00,
2013-06-11 22:08:00,83.8,73.8,29.90,South,186,6.0,11.0,72,0.00,,BKN330,0.00,0.00,VWS V14.01,2013-06-12 03:08:00,
2013-06-11 22:10:00,85.7,73.5,29.89,SSE,167,10.0,17.0,67,0.00,,CLR,0.00,0.00,VWS V15.00,2013-06-12 03:10:00,
2013-06-11 22:13:00,83.6,73.6,29.90,South,169,12.0,13.0,72,0.00,,BKN330,0.00,0.00,VWS V14.01,2013-06-12 03:13:00,
2013-06-11 22:18:00,83.4,73.4,29.91,South,188,9.0,14.0,72,0.00,,BKN330,0.00,0.00,VWS V14.01,2013-06-12 03:18:00,
2013-06-11 22:20:00,85.3,74.0,29.89,SW,215,6.0,16.0,69,0.00,,CLR,0.00,0.00,VWS V15.00,2013-06-12 03:20:00,
2013-06-11 22:23:00,83.4,73.8,29.91,SSW,194,7.0,12.0,73,0.00,,BKN330,0.00,0.00,VWS V14.01,2013-06-12 03:23:00,
2013-06-11 22:28:00,83.2,73.2,29.91,SSW,203,9.0,14.0,72,0.00,,BKN330,0.00,0.00,VWS V14.01,2013-06-12 03:28:00,
2013-06-11 22:30:00,84.9,73.2,29.89,SSW,194,8.0,14.0,68,0.00,,CLR,0.00,0.00,VWS V15.00,2013-06-12 03:30:00,
2013-06-11 22:33:00,83.2,73.2,29.92,South,187,9.0,13.0,72,0.00,,BKN330,0.00,0.00,VWS V14.01,2013-06-12 03:33:00,
2013-06-11 22:38:00,83.0,73.1,29.92,South,181,10.0,13.0,72,0.00,,BKN330,0.00,0.00,VWS V14.01,2013-06-12 03:38:00,
2013-06-11 22:40:00,84.7,73.4,29.89,South,186,7.0,15.0,69,0.00,,CLR,0.00,0.00,VWS V15.00,2013-06-12 03:40:00,
2013-06-11 22:43:00,83.0,72.6,29.92,South,188,12.0,15.0,71,0.00,,SCT270,0.00,0.00,VWS V14.01,2013-06-12 03:43:00,
2013-06-11 22:48:00,83.0,73.1,29.92,SSW,192,12.0,15.0,72,0.00,,SCT270,0.00,0.00,VWS V14.01,2013-06-12 03:48:00,
2013-06-11 22:50:00,84.3,73.5,29.90,South,185,6.0,14.0,70,0.00,,CLR,0.00,0.00,VWS V15.00,2013-06-12 03:50:00,
2013-06-11 22:53:00,82.8,72.4,29.92,South,190,13.0,13.0,71,0.00,,SCT270,0.00,0.00,VWS V14.01,2013-06-12 03:53:00,
2013-06-11 22:58:00,82.8,72.4,29.92,South,183,5.0,14.0,71,0.00,,SCT270,0.00,0.00,VWS V14.01,2013-06-12 03:58:00,
2013-06-11 23:00:00,84.0,73.6,29.90,SSW,204,7.0,14.0,71,0.00,,CLR,0.00,0.00,VWS V15.00,2013-06-12 04:00:00,
2013-06-11 23:01:00,82.8,72.9,29.92,SSW,194,5.0,14.0,72,0.00,,SCT270,0.00,0.00,VWS V14.01,2013-06-12 04:01:00,
2013-06-11 23:06:00,82.6,72.7,29.92,South,177,5.0,11.0,72,0.00,,SCT270,0.00,0.00,VWS V14.01,2013-06-12 04:06:00,
2013-06-11 23:10:00,83.6,73.6,29.90,SSW,197,7.0,12.0,72,0.00,,CLR,0.00,0.00,VWS V15.00,2013-06-12 04:10:00,
2013-06-11 23:11:00,82.6,73.1,29.92,SSW,194,12.0,13.0,73,0.00,,SCT270,0.00,0.00,VWS V14.01,2013-06-12 04:11:00,
2013-06-11 23:16:00,82.4,73.3,29.92,SSW,197,7.0,13.0,74,0.00,,SCT270,0.00,0.00,VWS V14.01,2013-06-12 04:16:00,
2013-06-11 23:20:00,83.4,73.4,29.91,South,180,7.0,14.0,72,0.00,,CLR,0.00,0.00,VWS V15.00,2013-06-12 04:20:00,
2013-06-11 23:21:00,82.2,73.1,29.92,South,186,7.0,13.0,74,0.00,,SCT270,0.00,0.00,VWS V14.01,2013-06-12 04:21:00,
2013-06-11 23:26:00,82.0,72.9,29.92,South,178,6.0,13.0,74,0.00,,SCT270,0.00,0.00,VWS V14.01,2013-06-12 04:26:00,
2013-06-11 23:30:00,83.2,73.2,29.92,SSE,157,7.0,15.0,72,0.00,,CLR,0.00,0.00,VWS V15.00,2013-06-12 04:30:00,
2013-06-11 23:31:00,81.8,72.7,29.92,South,189,6.0,10.0,74,0.00,,SCT270,0.00,0.00,VWS V14.01,2013-06-12 04:31:00,
2013-06-11 23:36:00,81.6,72.5,29.92,SSW,194,9.0,13.0,74,0.00,,SCT270,0.00,0.00,VWS V14.01,2013-06-12 04:36:00,
2013-06-11 23:40:00,83.0,72.6,29.92,South,188,10.0,13.0,71,0.00,,CLR,0.00,0.00,VWS V15.00,2013-06-12 04:40:00,
2013-06-11 23:42:00,81.6,72.5,29.92,SSW,203,6.0,6.0,74,0.00,,FEW270,0.00,0.00,VWS V14.01,2013-06-12 04:42:00,
2013-06-11 23:47:00,81.4,72.3,29.92,SSW,199,8.0,12.0,74,0.00,,FEW270,0.00,0.00,VWS V14.01,2013-06-12 04:47:00,
2013-06-11 23:50:00,82.8,72.4,29.92,South,187,11.0,15.0,71,0.00,,CLR,0.00,0.00,VWS V15.00,2013-06-12 04:50:00,
2013-06-11 23:52:00,81.4,72.3,29.92,SSW,200,6.0,7.0,74,0.00,,FEW270,0.00,0.00,VWS V14.01,2013-06-12 04:52:00,
2013-06-11 23:57:00,81.2,72.5,29.92,SW,215,6.0,12.0,75,0.00,,FEW270,0.00,0.00,VWS V14.01,2013-06-12 04:57:00,